sensor_id;sensor_type;location;lat;lon;timestamp;P1;durP1;ratioP1;P2;durP2;ratioP2
789;SDS011;378;48.844;9.156;2024-02-21T00:01:22;8.35;;;2.67;;
789;SDS011;378;48.844;9.156;2024-02-21T00:03:49;8.50;;;2.97;;
789;SDS011;378;48.844;9.156;2024-02-21T00:06:15;10.70;;;2.80;;
789;SDS011;378;48.844;9.156;2024-02-21T00:08:42;15.40;;;3.22;;
789;SDS011;378;48.844;9.156;2024-02-21T00:11:09;9.70;;;3.08;;
789;SDS011;378;48.844;9.156;2024-02-21T00:13:36;8.25;;;2.85;;
789;SDS011;378;48.844;9.156;2024-02-21T00:16:04;11.57;;;3.00;;
789;SDS011;378;48.844;9.156;2024-02-21T00:18:32;6.18;;;2.83;;
789;SDS011;378;48.844;9.156;2024-02-21T00:20:58;13.95;;;3.53;;
789;SDS011;378;48.844;9.156;2024-02-21T00:23:26;10.35;;;3.13;;
789;SDS011;378;48.844;9.156;2024-02-21T00:25:53;11.82;;;3.17;;
789;SDS011;378;48.844;9.156;2024-02-21T00:28:20;7.43;;;2.55;;
789;SDS011;378;48.844;9.156;2024-02-21T00:30:47;10.43;;;3.10;;
789;SDS011;378;48.844;9.156;2024-02-21T00:33:16;12.75;;;3.35;;
789;SDS011;378;48.844;9.156;2024-02-21T00:35:43;10.13;;;3.28;;
789;SDS011;378;48.844;9.156;2024-02-21T00:38:10;11.45;;;3.20;;
789;SDS011;378;48.844;9.156;2024-02-21T00:40:37;10.20;;;3.13;;
789;SDS011;378;48.844;9.156;2024-02-21T00:43:04;8.68;;;2.80;;
789;SDS011;378;48.844;9.156;2024-02-21T00:45:31;13.73;;;3.50;;
789;SDS011;378;48.844;9.156;2024-02-21T00:47:58;13.40;;;3.15;;
789;SDS011;378;48.844;9.156;2024-02-21T00:50:26;9.23;;;3.08;;
789;SDS011;378;48.844;9.156;2024-02-21T00:52:53;7.65;;;2.83;;
789;SDS011;378;48.844;9.156;2024-02-21T00:55:19;11.73;;;2.80;;
789;SDS011;378;48.844;9.156;2024-02-21T00:57:46;7.38;;;2.90;;
789;SDS011;378;48.844;9.156;2024-02-21T01:00:13;9.00;;;2.83;;
789;SDS011;378;48.844;9.156;2024-02-21T01:02:40;9.90;;;3.38;;
789;SDS011;378;48.844;9.156;2024-02-21T01:05:07;11.95;;;2.78;;
789;SDS011;378;48.844;9.156;2024-02-21T01:07:35;11.68;;;2.90;;
789;SDS011;378;48.844;9.156;2024-02-21T01:10:03;9.27;;;2.63;;
789;SDS011;378;48.844;9.156;2024-02-21T01:12:30;9.02;;;2.83;;
789;SDS011;378;48.844;9.156;2024-02-21T01:14:57;7.38;;;2.78;;
789;SDS011;378;48.844;9.156;2024-02-21T01:17:24;8.52;;;2.50;;
789;SDS011;378;48.844;9.156;2024-02-21T01:19:50;11.30;;;2.78;;
789;SDS011;378;48.844;9.156;2024-02-21T01:22:17;6.88;;;2.70;;
789;SDS011;378;48.844;9.156;2024-02-21T01:24:46;8.90;;;2.75;;
789;SDS011;378;48.844;9.156;2024-02-21T01:27:12;10.05;;;2.65;;
789;SDS011;378;48.844;9.156;2024-02-21T01:29:39;12.93;;;2.75;;
789;SDS011;378;48.844;9.156;2024-02-21T01:32:06;6.35;;;2.50;;
789;SDS011;378;48.844;9.156;2024-02-21T01:34:33;10.88;;;2.50;;
789;SDS011;378;48.844;9.156;2024-02-21T01:37:00;9.57;;;2.60;;
789;SDS011;378;48.844;9.156;2024-02-21T01:39:29;10.48;;;2.67;;
789;SDS011;378;48.844;9.156;2024-02-21T01:41:57;9.00;;;2.60;;
789;SDS011;378;48.844;9.156;2024-02-21T01:44:24;8.40;;;2.70;;
789;SDS011;378;48.844;9.156;2024-02-21T01:46:52;12.85;;;2.97;;
789;SDS011;378;48.844;9.156;2024-02-21T01:49:19;10.35;;;2.42;;
789;SDS011;378;48.844;9.156;2024-02-21T01:51:47;12.82;;;3.00;;
789;SDS011;378;48.844;9.156;2024-02-21T01:54:16;11.18;;;2.67;;
789;SDS011;378;48.844;9.156;2024-02-21T01:56:44;10.52;;;2.53;;
789;SDS011;378;48.844;9.156;2024-02-21T01:59:13;9.05;;;2.80;;
789;SDS011;378;48.844;9.156;2024-02-21T02:01:41;8.02;;;2.33;;
789;SDS011;378;48.844;9.156;2024-02-21T02:04:08;9.70;;;2.45;;
789;SDS011;378;48.844;9.156;2024-02-21T02:06:35;7.20;;;2.42;;
789;SDS011;378;48.844;9.156;2024-02-21T02:09:02;10.40;;;2.63;;
789;SDS011;378;48.844;9.156;2024-02-21T02:11:31;10.38;;;2.83;;
789;SDS011;378;48.844;9.156;2024-02-21T02:13:58;10.15;;;2.60;;
789;SDS011;378;48.844;9.156;2024-02-21T02:16:26;10.88;;;2.20;;
789;SDS011;378;48.844;9.156;2024-02-21T02:18:53;10.18;;;2.10;;
789;SDS011;378;48.844;9.156;2024-02-21T02:21:22;4.05;;;1.88;;
789;SDS011;378;48.844;9.156;2024-02-21T02:23:54;6.95;;;2.78;;
789;SDS011;378;48.844;9.156;2024-02-21T02:26:22;8.38;;;1.98;;
789;SDS011;378;48.844;9.156;2024-02-21T02:28:48;5.00;;;2.20;;
789;SDS011;378;48.844;9.156;2024-02-21T02:31:15;8.07;;;2.05;;
789;SDS011;378;48.844;9.156;2024-02-21T02:33:42;11.93;;;2.50;;
789;SDS011;378;48.844;9.156;2024-02-21T02:36:10;9.07;;;2.40;;
789;SDS011;378;48.844;9.156;2024-02-21T02:38:37;10.57;;;2.00;;
789;SDS011;378;48.844;9.156;2024-02-21T02:41:05;8.45;;;2.15;;
789;SDS011;378;48.844;9.156;2024-02-21T02:43:32;11.48;;;2.38;;
789;SDS011;378;48.844;9.156;2024-02-21T02:45:58;10.35;;;2.20;;
789;SDS011;378;48.844;9.156;2024-02-21T02:48:25;7.03;;;1.98;;
789;SDS011;378;48.844;9.156;2024-02-21T02:50:52;6.43;;;1.92;;
789;SDS011;378;48.844;9.156;2024-02-21T02:53:19;8.75;;;2.00;;
789;SDS011;378;48.844;9.156;2024-02-21T02:55:45;7.93;;;2.58;;
789;SDS011;378;48.844;9.156;2024-02-21T02:58:14;5.78;;;1.77;;
789;SDS011;378;48.844;9.156;2024-02-21T03:00:40;13.13;;;3.95;;
789;SDS011;378;48.844;9.156;2024-02-21T03:03:07;9.70;;;2.10;;
789;SDS011;378;48.844;9.156;2024-02-21T03:05:34;11.10;;;2.75;;
789;SDS011;378;48.844;9.156;2024-02-21T03:08:01;10.30;;;2.35;;
789;SDS011;378;48.844;9.156;2024-02-21T03:10:31;9.90;;;2.28;;
789;SDS011;378;48.844;9.156;2024-02-21T03:12:58;9.82;;;2.67;;
789;SDS011;378;48.844;9.156;2024-02-21T03:15:27;6.68;;;2.00;;
789;SDS011;378;48.844;9.156;2024-02-21T03:17:53;5.97;;;2.13;;
789;SDS011;378;48.844;9.156;2024-02-21T03:20:20;11.52;;;2.45;;
789;SDS011;378;48.844;9.156;2024-02-21T03:22:50;6.50;;;2.38;;
789;SDS011;378;48.844;9.156;2024-02-21T03:25:55;9.00;;;2.40;;
789;SDS011;378;48.844;9.156;2024-02-21T03:28:40;5.03;;;1.75;;
789;SDS011;378;48.844;9.156;2024-02-21T03:31:36;6.45;;;2.15;;
789;SDS011;378;48.844;9.156;2024-02-21T03:34:11;11.30;;;2.25;;
789;SDS011;378;48.844;9.156;2024-02-21T03:36:54;5.35;;;2.05;;
789;SDS011;378;48.844;9.156;2024-02-21T03:39:30;7.60;;;2.15;;
789;SDS011;378;48.844;9.156;2024-02-21T03:42:09;10.95;;;2.40;;
789;SDS011;378;48.844;9.156;2024-02-21T03:44:57;5.75;;;2.03;;
789;SDS011;378;48.844;9.156;2024-02-21T03:47:46;7.43;;;2.30;;
789;SDS011;378;48.844;9.156;2024-02-21T03:50:40;11.18;;;2.63;;
789;SDS011;378;48.844;9.156;2024-02-21T03:53:26;6.90;;;2.50;;
789;SDS011;378;48.844;9.156;2024-02-21T03:56:02;10.80;;;3.08;;
789;SDS011;378;48.844;9.156;2024-02-21T03:58:48;9.30;;;2.40;;
789;SDS011;378;48.844;9.156;2024-02-21T04:01:26;9.27;;;2.60;;
789;SDS011;378;48.844;9.156;2024-02-21T04:04:00;11.88;;;2.80;;
789;SDS011;378;48.844;9.156;2024-02-21T04:06:51;9.23;;;2.75;;
789;SDS011;378;48.844;9.156;2024-02-21T04:09:30;8.95;;;2.33;;
789;SDS011;378;48.844;9.156;2024-02-21T04:12:13;8.25;;;2.67;;
789;SDS011;378;48.844;9.156;2024-02-21T04:14:43;8.93;;;2.90;;
789;SDS011;378;48.844;9.156;2024-02-21T04:17:22;10.90;;;2.60;;
789;SDS011;378;48.844;9.156;2024-02-21T04:20:13;7.57;;;2.53;;
789;SDS011;378;48.844;9.156;2024-02-21T04:23:16;10.32;;;2.30;;
789;SDS011;378;48.844;9.156;2024-02-21T04:25:55;10.05;;;2.70;;
789;SDS011;378;48.844;9.156;2024-02-21T04:28:32;9.73;;;2.55;;
789;SDS011;378;48.844;9.156;2024-02-21T04:31:13;9.27;;;2.55;;
789;SDS011;378;48.844;9.156;2024-02-21T04:34:07;6.82;;;2.30;;
789;SDS011;378;48.844;9.156;2024-02-21T04:36:47;6.40;;;2.10;;
789;SDS011;378;48.844;9.156;2024-02-21T04:39:28;8.18;;;2.13;;
789;SDS011;378;48.844;9.156;2024-02-21T04:41:56;10.57;;;2.70;;
789;SDS011;378;48.844;9.156;2024-02-21T04:44:26;5.32;;;2.75;;
789;SDS011;378;48.844;9.156;2024-02-21T04:47:12;8.40;;;2.70;;
789;SDS011;378;48.844;9.156;2024-02-21T04:49:58;7.75;;;2.85;;
789;SDS011;378;48.844;9.156;2024-02-21T04:52:33;12.65;;;2.80;;
789;SDS011;378;48.844;9.156;2024-02-21T04:55:04;12.30;;;2.70;;
789;SDS011;378;48.844;9.156;2024-02-21T04:57:49;7.90;;;2.50;;
789;SDS011;378;48.844;9.156;2024-02-21T05:00:31;8.38;;;2.70;;
789;SDS011;378;48.844;9.156;2024-02-21T05:03:28;10.30;;;2.42;;
789;SDS011;378;48.844;9.156;2024-02-21T05:06:09;5.82;;;2.30;;
789;SDS011;378;48.844;9.156;2024-02-21T05:09:03;11.20;;;2.47;;
789;SDS011;378;48.844;9.156;2024-02-21T05:12:01;8.82;;;2.53;;
789;SDS011;378;48.844;9.156;2024-02-21T05:14:48;6.18;;;2.70;;
789;SDS011;378;48.844;9.156;2024-02-21T05:17:21;10.15;;;3.10;;
789;SDS011;378;48.844;9.156;2024-02-21T05:19:58;9.02;;;2.17;;
789;SDS011;378;48.844;9.156;2024-02-21T05:22:49;5.55;;;2.25;;
789;SDS011;378;48.844;9.156;2024-02-21T05:25:38;8.52;;;2.38;;
789;SDS011;378;48.844;9.156;2024-02-21T05:28:23;6.00;;;2.15;;
789;SDS011;378;48.844;9.156;2024-02-21T05:31:00;9.75;;;2.35;;
789;SDS011;378;48.844;9.156;2024-02-21T05:33:39;10.05;;;2.65;;
789;SDS011;378;48.844;9.156;2024-02-21T05:36:18;7.68;;;2.78;;
789;SDS011;378;48.844;9.156;2024-02-21T05:39:19;5.85;;;2.47;;
789;SDS011;378;48.844;9.156;2024-02-21T05:42:00;5.45;;;1.92;;
789;SDS011;378;48.844;9.156;2024-02-21T05:44:36;13.05;;;2.97;;
789;SDS011;378;48.844;9.156;2024-02-21T05:47:25;12.00;;;2.83;;
789;SDS011;378;48.844;9.156;2024-02-21T05:50:04;6.63;;;2.38;;
789;SDS011;378;48.844;9.156;2024-02-21T05:53:07;8.15;;;2.67;;
789;SDS011;378;48.844;9.156;2024-02-21T05:56:07;7.50;;;2.72;;
789;SDS011;378;48.844;9.156;2024-02-21T05:59:34;14.20;;;3.50;;
789;SDS011;378;48.844;9.156;2024-02-21T06:02:29;18.48;;;3.28;;
789;SDS011;378;48.844;9.156;2024-02-21T06:05:21;7.72;;;3.13;;
789;SDS011;378;48.844;9.156;2024-02-21T06:08:27;10.73;;;3.15;;
789;SDS011;378;48.844;9.156;2024-02-21T06:11:16;9.48;;;2.92;;
789;SDS011;378;48.844;9.156;2024-02-21T06:13:43;6.75;;;2.67;;
789;SDS011;378;48.844;9.156;2024-02-21T06:16:11;9.07;;;2.53;;
789;SDS011;378;48.844;9.156;2024-02-21T06:18:38;7.75;;;2.38;;
789;SDS011;378;48.844;9.156;2024-02-21T06:21:05;6.25;;;2.40;;
789;SDS011;378;48.844;9.156;2024-02-21T06:23:32;7.10;;;2.13;;
789;SDS011;378;48.844;9.156;2024-02-21T06:25:59;9.40;;;2.50;;
789;SDS011;378;48.844;9.156;2024-02-21T06:28:24;7.78;;;2.13;;
789;SDS011;378;48.844;9.156;2024-02-21T06:30:52;8.43;;;2.17;;
789;SDS011;378;48.844;9.156;2024-02-21T06:33:20;9.75;;;2.55;;
789;SDS011;378;48.844;9.156;2024-02-21T06:35:49;7.07;;;1.90;;
789;SDS011;378;48.844;9.156;2024-02-21T06:38:18;4.82;;;1.90;;
789;SDS011;378;48.844;9.156;2024-02-21T06:40:45;7.70;;;2.20;;
789;SDS011;378;48.844;9.156;2024-02-21T06:43:16;7.55;;;2.58;;
789;SDS011;378;48.844;9.156;2024-02-21T06:45:44;10.30;;;2.85;;
789;SDS011;378;48.844;9.156;2024-02-21T06:48:12;9.60;;;2.78;;
789;SDS011;378;48.844;9.156;2024-02-21T06:50:41;6.25;;;2.35;;
789;SDS011;378;48.844;9.156;2024-02-21T06:53:08;6.90;;;2.20;;
789;SDS011;378;48.844;9.156;2024-02-21T06:55:34;7.85;;;2.40;;
789;SDS011;378;48.844;9.156;2024-02-21T06:58:01;7.80;;;2.13;;
789;SDS011;378;48.844;9.156;2024-02-21T07:00:28;5.53;;;1.77;;
789;SDS011;378;48.844;9.156;2024-02-21T07:02:55;9.40;;;2.45;;
789;SDS011;378;48.844;9.156;2024-02-21T07:05:23;6.70;;;2.25;;
789;SDS011;378;48.844;9.156;2024-02-21T07:07:51;9.07;;;2.20;;
789;SDS011;378;48.844;9.156;2024-02-21T07:10:18;7.40;;;2.60;;
789;SDS011;378;48.844;9.156;2024-02-21T07:12:45;9.10;;;2.50;;
789;SDS011;378;48.844;9.156;2024-02-21T07:15:12;10.40;;;2.50;;
789;SDS011;378;48.844;9.156;2024-02-21T07:17:38;8.45;;;2.33;;
789;SDS011;378;48.844;9.156;2024-02-21T07:20:06;10.30;;;2.60;;
789;SDS011;378;48.844;9.156;2024-02-21T07:22:33;8.93;;;2.35;;
789;SDS011;378;48.844;9.156;2024-02-21T07:25:02;9.65;;;2.35;;
789;SDS011;378;48.844;9.156;2024-02-21T07:27:29;8.27;;;2.42;;
789;SDS011;378;48.844;9.156;2024-02-21T07:29:57;8.82;;;2.20;;
789;SDS011;378;48.844;9.156;2024-02-21T07:32:24;5.97;;;2.10;;
789;SDS011;378;48.844;9.156;2024-02-21T07:34:50;12.52;;;2.05;;
789;SDS011;378;48.844;9.156;2024-02-21T07:37:17;7.18;;;1.85;;
789;SDS011;378;48.844;9.156;2024-02-21T07:39:44;6.85;;;2.08;;
789;SDS011;378;48.844;9.156;2024-02-21T07:42:15;9.05;;;1.90;;
789;SDS011;378;48.844;9.156;2024-02-21T07:44:42;10.45;;;2.40;;
789;SDS011;378;48.844;9.156;2024-02-21T07:47:09;9.75;;;2.00;;
789;SDS011;378;48.844;9.156;2024-02-21T07:49:40;5.75;;;2.00;;
789;SDS011;378;48.844;9.156;2024-02-21T07:52:08;5.13;;;2.17;;
789;SDS011;378;48.844;9.156;2024-02-21T07:54:35;11.05;;;1.80;;
789;SDS011;378;48.844;9.156;2024-02-21T07:57:02;4.63;;;1.42;;
789;SDS011;378;48.844;9.156;2024-02-21T08:09:54;12.02;;;1.65;;
789;SDS011;378;48.844;9.156;2024-02-21T08:12:21;8.25;;;1.85;;
789;SDS011;378;48.844;9.156;2024-02-21T08:14:47;6.13;;;1.88;;
789;SDS011;378;48.844;9.156;2024-02-21T08:17:14;5.30;;;1.60;;
789;SDS011;378;48.844;9.156;2024-02-21T08:19:41;7.60;;;1.88;;
789;SDS011;378;48.844;9.156;2024-02-21T08:22:08;7.57;;;1.88;;
789;SDS011;378;48.844;9.156;2024-02-21T08:24:35;8.57;;;1.85;;
789;SDS011;378;48.844;9.156;2024-02-21T08:27:04;7.32;;;2.10;;
789;SDS011;378;48.844;9.156;2024-02-21T08:29:31;5.70;;;1.77;;
789;SDS011;378;48.844;9.156;2024-02-21T08:31:58;7.30;;;1.90;;
789;SDS011;378;48.844;9.156;2024-02-21T08:34:25;7.70;;;2.15;;
789;SDS011;378;48.844;9.156;2024-02-21T08:36:54;10.05;;;1.77;;
789;SDS011;378;48.844;9.156;2024-02-21T08:39:21;10.95;;;1.73;;
789;SDS011;378;48.844;9.156;2024-02-21T08:41:47;7.55;;;1.83;;
789;SDS011;378;48.844;9.156;2024-02-21T08:44:17;7.13;;;1.50;;
789;SDS011;378;48.844;9.156;2024-02-21T08:46:44;11.35;;;2.05;;
789;SDS011;378;48.844;9.156;2024-02-21T08:49:12;8.77;;;1.85;;
789;SDS011;378;48.844;9.156;2024-02-21T08:51:39;10.43;;;2.03;;
789;SDS011;378;48.844;9.156;2024-02-21T08:54:06;6.55;;;1.60;;
789;SDS011;378;48.844;9.156;2024-02-21T08:56:33;5.22;;;1.48;;
789;SDS011;378;48.844;9.156;2024-02-21T08:59:00;7.07;;;2.00;;
789;SDS011;378;48.844;9.156;2024-02-21T09:01:28;9.75;;;1.90;;
789;SDS011;378;48.844;9.156;2024-02-21T09:03:55;9.13;;;2.03;;
789;SDS011;378;48.844;9.156;2024-02-21T09:06:22;4.03;;;1.30;;
789;SDS011;378;48.844;9.156;2024-02-21T09:08:49;5.60;;;1.77;;
789;SDS011;378;48.844;9.156;2024-02-21T09:11:16;7.20;;;1.75;;
789;SDS011;378;48.844;9.156;2024-02-21T09:13:43;5.28;;;1.85;;
789;SDS011;378;48.844;9.156;2024-02-21T09:16:09;7.20;;;1.88;;
789;SDS011;378;48.844;9.156;2024-02-21T09:18:38;11.80;;;2.20;;
789;SDS011;378;48.844;9.156;2024-02-21T09:21:04;8.35;;;2.00;;
789;SDS011;378;48.844;9.156;2024-02-21T09:23:31;11.10;;;1.65;;
789;SDS011;378;48.844;9.156;2024-02-21T09:25:58;11.27;;;2.03;;
789;SDS011;378;48.844;9.156;2024-02-21T09:28:28;7.95;;;1.92;;
789;SDS011;378;48.844;9.156;2024-02-21T09:30:55;8.45;;;2.20;;
789;SDS011;378;48.844;9.156;2024-02-21T09:33:22;9.80;;;1.63;;
789;SDS011;378;48.844;9.156;2024-02-21T09:35:50;13.77;;;1.73;;
789;SDS011;378;48.844;9.156;2024-02-21T09:38:18;5.13;;;1.52;;
789;SDS011;378;48.844;9.156;2024-02-21T09:40:45;7.97;;;1.55;;
789;SDS011;378;48.844;9.156;2024-02-21T09:43:17;8.77;;;1.75;;
789;SDS011;378;48.844;9.156;2024-02-21T09:49:42;8.50;;;2.03;;
789;SDS011;378;48.844;9.156;2024-02-21T09:52:12;7.55;;;1.73;;
789;SDS011;378;48.844;9.156;2024-02-21T09:54:41;11.82;;;1.98;;
789;SDS011;378;48.844;9.156;2024-02-21T09:57:09;11.63;;;2.00;;
789;SDS011;378;48.844;9.156;2024-02-21T09:59:36;9.65;;;1.85;;
789;SDS011;378;48.844;9.156;2024-02-21T10:02:04;14.02;;;1.67;;
789;SDS011;378;48.844;9.156;2024-02-21T10:04:31;9.40;;;2.55;;
789;SDS011;378;48.844;9.156;2024-02-21T10:06:58;6.75;;;1.60;;
789;SDS011;378;48.844;9.156;2024-02-21T10:09:27;7.47;;;1.63;;
789;SDS011;378;48.844;9.156;2024-02-21T10:11:54;4.50;;;1.45;;
789;SDS011;378;48.844;9.156;2024-02-21T10:17:02;2.58;;;1.30;;
789;SDS011;378;48.844;9.156;2024-02-21T10:19:34;5.40;;;1.60;;
789;SDS011;378;48.844;9.156;2024-02-21T10:22:01;5.50;;;1.10;;
789;SDS011;378;48.844;9.156;2024-02-21T10:24:31;7.82;;;1.90;;
789;SDS011;378;48.844;9.156;2024-02-21T10:26:58;5.90;;;1.30;;
789;SDS011;378;48.844;9.156;2024-02-21T10:29:28;10.35;;;1.33;;
789;SDS011;378;48.844;9.156;2024-02-21T10:32:03;6.43;;;1.60;;
789;SDS011;378;48.844;9.156;2024-02-21T10:34:36;3.40;;;1.30;;
789;SDS011;378;48.844;9.156;2024-02-21T10:37:04;6.03;;;1.30;;
789;SDS011;378;48.844;9.156;2024-02-21T10:39:33;4.75;;;1.52;;
789;SDS011;378;48.844;9.156;2024-02-21T10:42:01;8.05;;;1.50;;
789;SDS011;378;48.844;9.156;2024-02-21T10:44:30;7.70;;;1.70;;
789;SDS011;378;48.844;9.156;2024-02-21T10:46:58;4.68;;;1.48;;
789;SDS011;378;48.844;9.156;2024-02-21T10:49:25;7.40;;;1.80;;
789;SDS011;378;48.844;9.156;2024-02-21T10:51:54;5.03;;;1.48;;
789;SDS011;378;48.844;9.156;2024-02-21T10:54:33;8.57;;;1.20;;
789;SDS011;378;48.844;9.156;2024-02-21T10:57:10;6.65;;;1.40;;
789;SDS011;378;48.844;9.156;2024-02-21T10:59:39;4.45;;;0.95;;
789;SDS011;378;48.844;9.156;2024-02-21T11:02:06;5.05;;;1.30;;
789;SDS011;378;48.844;9.156;2024-02-21T11:04:34;4.95;;;1.27;;
789;SDS011;378;48.844;9.156;2024-02-21T11:07:02;8.10;;;1.50;;
789;SDS011;378;48.844;9.156;2024-02-21T11:09:31;4.85;;;1.25;;
789;SDS011;378;48.844;9.156;2024-02-21T11:12:01;4.78;;;1.23;;
789;SDS011;378;48.844;9.156;2024-02-21T11:14:29;3.75;;;1.48;;
789;SDS011;378;48.844;9.156;2024-02-21T11:16:58;7.70;;;1.50;;
789;SDS011;378;48.844;9.156;2024-02-21T11:19:25;3.83;;;1.13;;
789;SDS011;378;48.844;9.156;2024-02-21T11:21:54;3.92;;;1.27;;
789;SDS011;378;48.844;9.156;2024-02-21T11:24:25;4.97;;;1.38;;
789;SDS011;378;48.844;9.156;2024-02-21T11:26:54;3.67;;;1.40;;
789;SDS011;378;48.844;9.156;2024-02-21T11:29:24;4.57;;;1.10;;
789;SDS011;378;48.844;9.156;2024-02-21T11:31:51;4.07;;;1.38;;
789;SDS011;378;48.844;9.156;2024-02-21T11:34:19;6.90;;;1.40;;
789;SDS011;378;48.844;9.156;2024-02-21T11:36:46;2.95;;;1.20;;
789;SDS011;378;48.844;9.156;2024-02-21T11:39:18;4.47;;;1.10;;
789;SDS011;378;48.844;9.156;2024-02-21T11:41:46;7.88;;;1.35;;
789;SDS011;378;48.844;9.156;2024-02-21T11:44:16;7.45;;;1.65;;
789;SDS011;378;48.844;9.156;2024-02-21T11:46:45;7.70;;;1.33;;
789;SDS011;378;48.844;9.156;2024-02-21T11:49:11;6.80;;;1.48;;
789;SDS011;378;48.844;9.156;2024-02-21T11:51:39;3.58;;;1.20;;
789;SDS011;378;48.844;9.156;2024-02-21T11:54:08;4.45;;;1.30;;
789;SDS011;378;48.844;9.156;2024-02-21T11:56:42;6.57;;;1.70;;
789;SDS011;378;48.844;9.156;2024-02-21T11:59:09;7.30;;;1.45;;
789;SDS011;378;48.844;9.156;2024-02-21T12:01:35;6.10;;;1.40;;
789;SDS011;378;48.844;9.156;2024-02-21T12:04:04;5.65;;;1.80;;
789;SDS011;378;48.844;9.156;2024-02-21T12:06:32;5.88;;;1.50;;
789;SDS011;378;48.844;9.156;2024-02-21T12:08:59;6.43;;;1.70;;
789;SDS011;378;48.844;9.156;2024-02-21T12:11:30;5.75;;;1.58;;
789;SDS011;378;48.844;9.156;2024-02-21T12:14:00;7.05;;;1.70;;
789;SDS011;378;48.844;9.156;2024-02-21T12:16:28;6.35;;;1.50;;
789;SDS011;378;48.844;9.156;2024-02-21T12:18:55;6.63;;;1.77;;
789;SDS011;378;48.844;9.156;2024-02-21T12:21:29;4.35;;;1.02;;
789;SDS011;378;48.844;9.156;2024-02-21T12:23:58;6.75;;;1.17;;
789;SDS011;378;48.844;9.156;2024-02-21T12:26:29;6.07;;;1.40;;
789;SDS011;378;48.844;9.156;2024-02-21T12:28:58;6.72;;;1.80;;
789;SDS011;378;48.844;9.156;2024-02-21T12:31:27;3.67;;;1.30;;
789;SDS011;378;48.844;9.156;2024-02-21T12:33:54;5.45;;;1.40;;
789;SDS011;378;48.844;9.156;2024-02-21T12:36:21;3.67;;;1.10;;
789;SDS011;378;48.844;9.156;2024-02-21T12:38:50;7.22;;;1.30;;
789;SDS011;378;48.844;9.156;2024-02-21T12:41:16;4.80;;;1.55;;
789;SDS011;378;48.844;9.156;2024-02-21T12:43:43;5.88;;;1.20;;
789;SDS011;378;48.844;9.156;2024-02-21T12:46:10;8.25;;;1.35;;
789;SDS011;378;48.844;9.156;2024-02-21T12:48:39;6.25;;;1.38;;
789;SDS011;378;48.844;9.156;2024-02-21T12:51:06;3.47;;;1.55;;
789;SDS011;378;48.844;9.156;2024-02-21T12:53:33;4.43;;;1.25;;
789;SDS011;378;48.844;9.156;2024-02-21T12:56:01;2.80;;;1.10;;
789;SDS011;378;48.844;9.156;2024-02-21T12:58:30;4.55;;;1.40;;
789;SDS011;378;48.844;9.156;2024-02-21T13:00:57;5.03;;;1.25;;
789;SDS011;378;48.844;9.156;2024-02-21T13:03:24;4.72;;;1.23;;
789;SDS011;378;48.844;9.156;2024-02-21T13:05:51;5.15;;;1.10;;
789;SDS011;378;48.844;9.156;2024-02-21T13:08:18;3.33;;;1.10;;
789;SDS011;378;48.844;9.156;2024-02-21T13:10:47;4.03;;;0.82;;
789;SDS011;378;48.844;9.156;2024-02-21T13:13:16;4.07;;;1.30;;
789;SDS011;378;48.844;9.156;2024-02-21T13:15:43;3.20;;;1.20;;
789;SDS011;378;48.844;9.156;2024-02-21T13:18:10;4.93;;;1.15;;
789;SDS011;378;48.844;9.156;2024-02-21T13:20:37;5.57;;;1.17;;
789;SDS011;378;48.844;9.156;2024-02-21T13:23:04;4.95;;;1.20;;
789;SDS011;378;48.844;9.156;2024-02-21T13:25:31;4.43;;;1.35;;
789;SDS011;378;48.844;9.156;2024-02-21T13:27:58;3.75;;;0.93;;
789;SDS011;378;48.844;9.156;2024-02-21T13:30:26;2.83;;;1.13;;
789;SDS011;378;48.844;9.156;2024-02-21T13:32:53;3.22;;;1.00;;
789;SDS011;378;48.844;9.156;2024-02-21T13:35:20;1.70;;;0.77;;
789;SDS011;378;48.844;9.156;2024-02-21T13:37:47;3.42;;;1.10;;
789;SDS011;378;48.844;9.156;2024-02-21T13:40:15;2.45;;;1.00;;
789;SDS011;378;48.844;9.156;2024-02-21T13:42:42;3.35;;;1.02;;
789;SDS011;378;48.844;9.156;2024-02-21T13:45:09;3.08;;;1.00;;
789;SDS011;378;48.844;9.156;2024-02-21T13:47:37;2.75;;;0.98;;
789;SDS011;378;48.844;9.156;2024-02-21T13:50:04;3.83;;;0.98;;
789;SDS011;378;48.844;9.156;2024-02-21T13:52:34;2.60;;;1.10;;
789;SDS011;378;48.844;9.156;2024-02-21T13:55:01;2.10;;;1.00;;
789;SDS011;378;48.844;9.156;2024-02-21T13:57:28;2.08;;;1.00;;
789;SDS011;378;48.844;9.156;2024-02-21T13:59:55;1.67;;;0.65;;
789;SDS011;378;48.844;9.156;2024-02-21T14:02:21;2.05;;;0.98;;
789;SDS011;378;48.844;9.156;2024-02-21T14:04:50;1.85;;;0.85;;
789;SDS011;378;48.844;9.156;2024-02-21T14:07:16;3.00;;;0.93;;
789;SDS011;378;48.844;9.156;2024-02-21T14:09:46;3.20;;;0.85;;
789;SDS011;378;48.844;9.156;2024-02-21T14:12:13;2.30;;;0.88;;
789;SDS011;378;48.844;9.156;2024-02-21T14:14:45;2.83;;;0.85;;
789;SDS011;378;48.844;9.156;2024-02-21T14:17:12;3.70;;;0.90;;
789;SDS011;378;48.844;9.156;2024-02-21T14:19:39;2.05;;;0.70;;
789;SDS011;378;48.844;9.156;2024-02-21T14:22:08;3.67;;;0.88;;
789;SDS011;378;48.844;9.156;2024-02-21T14:24:36;3.40;;;0.88;;
789;SDS011;378;48.844;9.156;2024-02-21T14:27:07;5.55;;;1.10;;
789;SDS011;378;48.844;9.156;2024-02-21T14:29:34;2.55;;;1.10;;
789;SDS011;378;48.844;9.156;2024-02-21T14:32:01;3.92;;;0.75;;
789;SDS011;378;48.844;9.156;2024-02-21T14:34:28;3.30;;;1.17;;
789;SDS011;378;48.844;9.156;2024-02-21T14:36:55;3.70;;;0.80;;
789;SDS011;378;48.844;9.156;2024-02-21T14:39:23;1.60;;;0.80;;
789;SDS011;378;48.844;9.156;2024-02-21T14:41:50;1.05;;;0.70;;
789;SDS011;378;48.844;9.156;2024-02-21T14:44:17;4.13;;;0.70;;
789;SDS011;378;48.844;9.156;2024-02-21T14:46:43;3.42;;;0.85;;
789;SDS011;378;48.844;9.156;2024-02-21T14:49:10;2.60;;;1.20;;
789;SDS011;378;48.844;9.156;2024-02-21T14:51:37;3.55;;;0.80;;
789;SDS011;378;48.844;9.156;2024-02-21T14:54:04;3.50;;;0.80;;
789;SDS011;378;48.844;9.156;2024-02-21T14:56:32;2.42;;;0.90;;
789;SDS011;378;48.844;9.156;2024-02-21T14:58:58;1.73;;;0.80;;
789;SDS011;378;48.844;9.156;2024-02-21T15:01:25;2.85;;;1.10;;
789;SDS011;378;48.844;9.156;2024-02-21T15:03:52;4.68;;;0.90;;
789;SDS011;378;48.844;9.156;2024-02-21T15:06:19;4.85;;;0.90;;
789;SDS011;378;48.844;9.156;2024-02-21T15:08:45;2.63;;;0.80;;
789;SDS011;378;48.844;9.156;2024-02-21T15:11:16;2.35;;;0.80;;
789;SDS011;378;48.844;9.156;2024-02-21T15:13:45;2.58;;;0.90;;
789;SDS011;378;48.844;9.156;2024-02-21T15:16:12;2.92;;;0.90;;
789;SDS011;378;48.844;9.156;2024-02-21T15:18:40;1.98;;;0.70;;
789;SDS011;378;48.844;9.156;2024-02-21T15:21:07;1.35;;;0.70;;
789;SDS011;378;48.844;9.156;2024-02-21T15:23:38;1.10;;;0.70;;
789;SDS011;378;48.844;9.156;2024-02-21T15:26:05;1.13;;;0.70;;
789;SDS011;378;48.844;9.156;2024-02-21T15:28:32;1.67;;;0.77;;
789;SDS011;378;48.844;9.156;2024-02-21T15:31:00;2.97;;;0.90;;
789;SDS011;378;48.844;9.156;2024-02-21T15:33:30;4.05;;;0.95;;
789;SDS011;378;48.844;9.156;2024-02-21T15:36:00;2.72;;;0.77;;
789;SDS011;378;48.844;9.156;2024-02-21T15:38:27;4.85;;;0.95;;
789;SDS011;378;48.844;9.156;2024-02-21T15:40:57;0.70;;;0.70;;
789;SDS011;378;48.844;9.156;2024-02-21T15:43:24;0.90;;;0.75;;
789;SDS011;378;48.844;9.156;2024-02-21T15:45:52;0.75;;;0.70;;
789;SDS011;378;48.844;9.156;2024-02-21T15:48:20;1.60;;;0.73;;
789;SDS011;378;48.844;9.156;2024-02-21T15:50:48;2.65;;;0.88;;
789;SDS011;378;48.844;9.156;2024-02-21T15:53:15;0.98;;;0.57;;
789;SDS011;378;48.844;9.156;2024-02-21T15:55:49;4.70;;;0.90;;
789;SDS011;378;48.844;9.156;2024-02-21T15:58:16;4.00;;;0.80;;
789;SDS011;378;48.844;9.156;2024-02-21T16:00:47;2.35;;;0.90;;
789;SDS011;378;48.844;9.156;2024-02-21T16:03:17;2.83;;;1.10;;
789;SDS011;378;48.844;9.156;2024-02-21T16:05:45;2.72;;;0.85;;
789;SDS011;378;48.844;9.156;2024-02-21T16:08:14;1.27;;;0.80;;
789;SDS011;378;48.844;9.156;2024-02-21T16:10:43;1.92;;;0.80;;
789;SDS011;378;48.844;9.156;2024-02-21T16:13:13;0.63;;;0.52;;
789;SDS011;378;48.844;9.156;2024-02-21T16:15:40;3.60;;;1.27;;
789;SDS011;378;48.844;9.156;2024-02-21T16:18:07;1.73;;;0.98;;
789;SDS011;378;48.844;9.156;2024-02-21T16:20:34;1.92;;;1.00;;